sensor_id;sensor_type;location;lat;lon;timestamp;temperature;humidity
56268;DHT22;42175;46.930;9.532;2023-03-23T00:02:28;23.60;37.40
56268;DHT22;42175;46.930;9.532;2023-03-23T00:04:55;23.60;37.40
56268;DHT22;42175;46.930;9.532;2023-03-23T00:07:22;23.60;37.30
56268;DHT22;42175;46.930;9.532;2023-03-23T00:09:54;23.60;37.30
56268;DHT22;42175;46.930;9.532;2023-03-23T00:12:26;23.60;37.30
56268;DHT22;42175;46.930;9.532;2023-03-23T00:15:03;23.60;37.30
56268;DHT22;42175;46.930;9.532;2023-03-23T00:17:30;23.60;37.20
56268;DHT22;42175;46.930;9.532;2023-03-23T00:19:59;23.60;37.10
56268;DHT22;42175;46.930;9.532;2023-03-23T00:22:27;23.60;37.20
56268;DHT22;42175;46.930;9.532;2023-03-23T00:24:54;23.60;37.20
56268;DHT22;42175;46.930;9.532;2023-03-23T00:27:21;23.60;37.20
56268;DHT22;42175;46.930;9.532;2023-03-23T00:29:50;23.60;37.20
56268;DHT22;42175;46.930;9.532;2023-03-23T00:32:21;23.60;37.20
56268;DHT22;42175;46.930;9.532;2023-03-23T00:34:57;23.60;37.20
56268;DHT22;42175;46.930;9.532;2023-03-23T00:37:26;23.60;37.20
56268;DHT22;42175;46.930;9.532;2023-03-23T00:39:52;23.60;37.20
56268;DHT22;42175;46.930;9.532;2023-03-23T00:42:22;23.60;37.10
56268;DHT22;42175;46.930;9.532;2023-03-23T00:44:48;23.60;37.20
56268;DHT22;42175;46.930;9.532;2023-03-23T00:47:15;23.60;37.20
56268;DHT22;42175;46.930;9.532;2023-03-23T00:49:42;23.60;37.20
56268;DHT22;42175;46.930;9.532;2023-03-23T00:52:09;23.60;37.20
56268;DHT22;42175;46.930;9.532;2023-03-23T00:54:36;23.60;37.20
56268;DHT22;42175;46.930;9.532;2023-03-23T00:57:03;23.60;37.20
56268;DHT22;42175;46.930;9.532;2023-03-23T00:59:29;23.60;37.20
56268;DHT22;42175;46.930;9.532;2023-03-23T01:01:56;23.60;37.10
56268;DHT22;42175;46.930;9.532;2023-03-23T01:04:21;23.50;37.10
56268;DHT22;42175;46.930;9.532;2023-03-23T01:06:49;23.60;37.10
56268;DHT22;42175;46.930;9.532;2023-03-23T01:09:16;23.50;37.10
56268;DHT22;42175;46.930;9.532;2023-03-23T01:11:43;23.60;37.20
56268;DHT22;42175;46.930;9.532;2023-03-23T01:14:10;23.50;37.10
56268;DHT22;42175;46.930;9.532;2023-03-23T01:16:36;23.50;37.10
56268;DHT22;42175;46.930;9.532;2023-03-23T01:19:02;23.60;37.20
56268;DHT22;42175;46.930;9.532;2023-03-23T01:21:28;23.50;37.10
56268;DHT22;42175;46.930;9.532;2023-03-23T01:23:53;23.60;37.20
56268;DHT22;42175;46.930;9.532;2023-03-23T01:26:22;23.50;37.10
56268;DHT22;42175;46.930;9.532;2023-03-23T01:28:48;23.50;37.00
56268;DHT22;42175;46.930;9.532;2023-03-23T01:31:16;23.50;37.10
56268;DHT22;42175;46.930;9.532;2023-03-23T01:33:43;23.50;37.10
56268;DHT22;42175;46.930;9.532;2023-03-23T01:36:26;23.50;37.10
56268;DHT22;42175;46.930;9.532;2023-03-23T03:38:46;23.40;37.10
56268;DHT22;42175;46.930;9.532;2023-03-23T03:41:12;23.40;37.10
56268;DHT22;42175;46.930;9.532;2023-03-23T03:43:38;23.40;37.10
56268;DHT22;42175;46.930;9.532;2023-03-23T03:46:04;23.40;37.10
56268;DHT22;42175;46.930;9.532;2023-03-23T03:48:30;23.40;37.10
56268;DHT22;42175;46.930;9.532;2023-03-23T03:50:55;23.40;37.10
56268;DHT22;42175;46.930;9.532;2023-03-23T03:53:23;23.40;37.10
56268;DHT22;42175;46.930;9.532;2023-03-23T03:55:49;23.50;37.10
56268;DHT22;42175;46.930;9.532;2023-03-23T03:58:15;23.40;37.10
56268;DHT22;42175;46.930;9.532;2023-03-23T04:00:42;23.40;37.10
56268;DHT22;42175;46.930;9.532;2023-03-23T04:03:07;23.40;37.00
56268;DHT22;42175;46.930;9.532;2023-03-23T04:05:34;23.40;37.00
56268;DHT22;42175;46.930;9.532;2023-03-23T04:08:02;23.40;37.00
56268;DHT22;42175;46.930;9.532;2023-03-23T04:10:30;23.40;37.00
56268;DHT22;42175;46.930;9.532;2023-03-23T04:12:57;23.40;37.00
56268;DHT22;42175;46.930;9.532;2023-03-23T04:15:23;23.40;37.00
56268;DHT22;42175;46.930;9.532;2023-03-23T04:17:48;23.40;37.00
56268;DHT22;42175;46.930;9.532;2023-03-23T04:20:15;23.40;37.00
56268;DHT22;42175;46.930;9.532;2023-03-23T04:22:50;23.50;37.00
56268;DHT22;42175;46.930;9.532;2023-03-23T04:25:19;23.40;37.00
56268;DHT22;42175;46.930;9.532;2023-03-23T04:27:49;23.40;37.00
56268;DHT22;42175;46.930;9.532;2023-03-23T04:30:20;23.40;37.00
56268;DHT22;42175;46.930;9.532;2023-03-23T04:32:48;23.40;37.00
56268;DHT22;42175;46.930;9.532;2023-03-23T04:35:22;23.40;37.60
56268;DHT22;42175;46.930;9.532;2023-03-23T04:37:52;23.40;37.00
56268;DHT22;42175;46.930;9.532;2023-03-23T04:40:18;23.40;37.00
56268;DHT22;42175;46.930;9.532;2023-03-23T04:42:45;23.50;37.10
56268;DHT22;42175;46.930;9.532;2023-03-23T04:45:18;23.50;37.10
56268;DHT22;42175;46.930;9.532;2023-03-23T04:47:50;23.40;37.00
56268;DHT22;42175;46.930;9.532;2023-03-23T04:50:27;23.40;37.00
56268;DHT22;42175;46.930;9.532;2023-03-23T04:52:56;23.40;37.00
56268;DHT22;42175;46.930;9.532;2023-03-23T04:55:25;23.40;37.00
56268;DHT22;42175;46.930;9.532;2023-03-23T04:57:51;23.40;37.00
56268;DHT22;42175;46.930;9.532;2023-03-23T05:00:18;23.50;37.00
56268;DHT22;42175;46.930;9.532;2023-03-23T05:02:47;23.40;37.00
56268;DHT22;42175;46.930;9.532;2023-03-23T05:05:17;23.40;37.00
56268;DHT22;42175;46.930;9.532;2023-03-23T05:07:43;23.40;37.00
56268;DHT22;42175;46.930;9.532;2023-03-23T05:10:11;23.40;36.90
56268;DHT22;42175;46.930;9.532;2023-03-23T05:12:38;23.50;37.00
56268;DHT22;42175;46.930;9.532;2023-03-23T05:15:05;23.40;36.90
56268;DHT22;42175;46.930;9.532;2023-03-23T05:17:33;23.40;36.90
56268;DHT22;42175;46.930;9.532;2023-03-23T05:19:59;23.50;37.00
56268;DHT22;42175;46.930;9.532;2023-03-23T05:22:27;23.50;37.00
56268;DHT22;42175;46.930;9.532;2023-03-23T05:24:53;23.40;36.90
56268;DHT22;42175;46.930;9.532;2023-03-23T05:27:19;23.50;37.00
56268;DHT22;42175;46.930;9.532;2023-03-23T05:29:45;23.50;37.00
56268;DHT22;42175;46.930;9.532;2023-03-23T05:32:15;23.50;37.00
56268;DHT22;42175;46.930;9.532;2023-03-23T05:34:42;23.40;36.90
56268;DHT22;42175;46.930;9.532;2023-03-23T05:37:09;23.40;36.90
56268;DHT22;42175;46.930;9.532;2023-03-23T05:39:36;23.40;36.90
56268;DHT22;42175;46.930;9.532;2023-03-23T05:42:02;23.40;36.90
56268;DHT22;42175;46.930;9.532;2023-03-23T05:44:28;23.40;36.90
56268;DHT22;42175;46.930;9.532;2023-03-23T05:46:55;23.40;36.90
56268;DHT22;42175;46.930;9.532;2023-03-23T05:49:21;23.40;36.90
56268;DHT22;42175;46.930;9.532;2023-03-23T05:51:47;23.40;36.90
56268;DHT22;42175;46.930;9.532;2023-03-23T05:54:16;23.40;36.90
56268;DHT22;42175;46.930;9.532;2023-03-23T05:56:42;23.40;36.90
56268;DHT22;42175;46.930;9.532;2023-03-23T05:59:08;23.40;36.90
56268;DHT22;42175;46.930;9.532;2023-03-23T06:01:36;23.40;36.90
56268;DHT22;42175;46.930;9.532;2023-03-23T06:04:02;23.40;36.90
56268;DHT22;42175;46.930;9.532;2023-03-23T06:06:29;23.50;36.90
56268;DHT22;42175;46.930;9.532;2023-03-23T06:08:57;23.40;36.80
56268;DHT22;42175;46.930;9.532;2023-03-23T06:11:24;23.40;36.80
56268;DHT22;42175;46.930;9.532;2023-03-23T06:13:52;23.40;36.80
56268;DHT22;42175;46.930;9.532;2023-03-23T06:16:18;23.40;36.80
56268;DHT22;42175;46.930;9.532;2023-03-23T06:18:44;23.40;36.80
56268;DHT22;42175;46.930;9.532;2023-03-23T06:21:11;23.40;36.80
56268;DHT22;42175;46.930;9.532;2023-03-23T06:23:37;23.40;36.90
56268;DHT22;42175;46.930;9.532;2023-03-23T06:26:07;23.40;36.80
56268;DHT22;42175;46.930;9.532;2023-03-23T06:28:34;23.40;36.90
56268;DHT22;42175;46.930;9.532;2023-03-23T06:31:04;23.50;36.90
56268;DHT22;42175;46.930;9.532;2023-03-23T06:33:36;23.40;36.90
56268;DHT22;42175;46.930;9.532;2023-03-23T06:36:02;23.40;36.90
56268;DHT22;42175;46.930;9.532;2023-03-23T06:38:29;23.40;36.90
56268;DHT22;42175;46.930;9.532;2023-03-23T06:40:55;23.40;36.90
56268;DHT22;42175;46.930;9.532;2023-03-23T06:43:21;23.50;36.90
56268;DHT22;42175;46.930;9.532;2023-03-23T06:45:47;23.40;36.90
56268;DHT22;42175;46.930;9.532;2023-03-23T06:48:13;23.40;36.90
56268;DHT22;42175;46.930;9.532;2023-03-23T06:50:42;23.40;36.90
56268;DHT22;42175;46.930;9.532;2023-03-23T06:53:08;23.40;36.90
56268;DHT22;42175;46.930;9.532;2023-03-23T06:55:34;23.50;36.90
56268;DHT22;42175;46.930;9.532;2023-03-23T06:58:00;23.50;37.10
56268;DHT22;42175;46.930;9.532;2023-03-23T07:00:26;23.50;37.40
56268;DHT22;42175;46.930;9.532;2023-03-23T07:02:52;23.50;37.60
56268;DHT22;42175;46.930;9.532;2023-03-23T07:05:19;23.50;37.60
56268;DHT22;42175;46.930;9.532;2023-03-23T07:07:45;23.50;37.70
56268;DHT22;42175;46.930;9.532;2023-03-23T07:10:10;23.50;37.80
56268;DHT22;42175;46.930;9.532;2023-03-23T07:12:37;23.50;37.90
56268;DHT22;42175;46.930;9.532;2023-03-23T07:15:04;23.50;37.90
56268;DHT22;42175;46.930;9.532;2023-03-23T07:17:30;23.50;37.80
56268;DHT22;42175;46.930;9.532;2023-03-23T07:19:57;23.50;38.00
56268;DHT22;42175;46.930;9.532;2023-03-23T07:22:23;23.50;38.00
56268;DHT22;42175;46.930;9.532;2023-03-23T07:24:48;23.50;37.90
56268;DHT22;42175;46.930;9.532;2023-03-23T07:27:14;23.50;38.00
56268;DHT22;42175;46.930;9.532;2023-03-23T07:29:40;23.50;38.10
56268;DHT22;42175;46.930;9.532;2023-03-23T07:32:10;23.50;38.10
56268;DHT22;42175;46.930;9.532;2023-03-23T07:34:36;23.50;38.20
56268;DHT22;42175;46.930;9.532;2023-03-23T07:37:03;23.50;38.20
56268;DHT22;42175;46.930;9.532;2023-03-23T07:39:29;23.50;38.20
56268;DHT22;42175;46.930;9.532;2023-03-23T07:41:55;23.50;38.30
56268;DHT22;42175;46.930;9.532;2023-03-23T07:44:22;23.50;38.30
56268;DHT22;42175;46.930;9.532;2023-03-23T07:46:48;23.50;38.20
56268;DHT22;42175;46.930;9.532;2023-03-23T07:49:13;23.50;38.20
56268;DHT22;42175;46.930;9.532;2023-03-23T07:51:40;23.50;38.70
56268;DHT22;42175;46.930;9.532;2023-03-23T07:54:06;23.60;39.10
56268;DHT22;42175;46.930;9.532;2023-03-23T07:56:34;23.60;38.80
56268;DHT22;42175;46.930;9.532;2023-03-23T07:59:01;23.60;38.70
56268;DHT22;42175;46.930;9.532;2023-03-23T08:01:28;23.60;38.40
56268;DHT22;42175;46.930;9.532;2023-03-23T08:03:54;23.60;38.50
56268;DHT22;42175;46.930;9.532;2023-03-23T08:06:23;23.60;38.80
56268;DHT22;42175;46.930;9.532;2023-03-23T08:08:50;23.60;38.60
56268;DHT22;42175;46.930;9.532;2023-03-23T08:11:17;23.60;38.40
56268;DHT22;42175;46.930;9.532;2023-03-23T08:13:45;23.60;38.40
56268;DHT22;42175;46.930;9.532;2023-03-23T08:16:11;23.60;38.30
56268;DHT22;42175;46.930;9.532;2023-03-23T08:18:37;23.60;38.40
56268;DHT22;42175;46.930;9.532;2023-03-23T08:21:05;23.60;38.20
56268;DHT22;42175;46.930;9.532;2023-03-23T08:23:32;23.50;38.10
56268;DHT22;42175;46.930;9.532;2023-03-23T08:25:58;23.60;38.10
56268;DHT22;42175;46.930;9.532;2023-03-23T08:28:24;23.60;38.30
56268;DHT22;42175;46.930;9.532;2023-03-23T08:30:50;23.60;38.60
56268;DHT22;42175;46.930;9.532;2023-03-23T08:33:16;23.60;38.70
56268;DHT22;42175;46.930;9.532;2023-03-23T08:35:42;23.60;39.00
56268;DHT22;42175;46.930;9.532;2023-03-23T08:38:10;23.60;39.20
56268;DHT22;42175;46.930;9.532;2023-03-23T08:40:37;23.60;38.90
56268;DHT22;42175;46.930;9.532;2023-03-23T08:43:03;23.60;38.80
56268;DHT22;42175;46.930;9.532;2023-03-23T08:45:29;23.60;38.60
56268;DHT22;42175;46.930;9.532;2023-03-23T08:47:55;23.60;38.50
56268;DHT22;42175;46.930;9.532;2023-03-23T08:50:25;23.60;38.40
56268;DHT22;42175;46.930;9.532;2023-03-23T08:52:52;23.60;38.30
56268;DHT22;42175;46.930;9.532;2023-03-23T08:55:19;23.60;38.20
56268;DHT22;42175;46.930;9.532;2023-03-23T08:57:46;23.60;38.20
56268;DHT22;42175;46.930;9.532;2023-03-23T09:00:16;23.60;38.20
56268;DHT22;42175;46.930;9.532;2023-03-23T09:02:47;23.60;38.20
56268;DHT22;42175;46.930;9.532;2023-03-23T09:05:19;23.60;38.10
56268;DHT22;42175;46.930;9.532;2023-03-23T09:07:47;23.60;38.10
56268;DHT22;42175;46.930;9.532;2023-03-23T09:10:14;23.60;38.10
56268;DHT22;42175;46.930;9.532;2023-03-23T09:12:41;23.60;38.10
56268;DHT22;42175;46.930;9.532;2023-03-23T09:15:09;23.60;38.10
56268;DHT22;42175;46.930;9.532;2023-03-23T09:17:42;23.60;38.10
56268;DHT22;42175;46.930;9.532;2023-03-23T09:20:09;23.60;38.10
56268;DHT22;42175;46.930;9.532;2023-03-23T09:22:42;23.60;38.00
56268;DHT22;42175;46.930;9.532;2023-03-23T09:25:10;23.60;38.00
56268;DHT22;42175;46.930;9.532;2023-03-23T09:27:37;23.60;38.00
56268;DHT22;42175;46.930;9.532;2023-03-23T09:30:11;23.60;37.90
56268;DHT22;42175;46.930;9.532;2023-03-23T09:32:38;23.60;37.90
56268;DHT22;42175;46.930;9.532;2023-03-23T09:35:07;23.60;37.80
56268;DHT22;42175;46.930;9.532;2023-03-23T09:37:36;23.60;37.70
56268;DHT22;42175;46.930;9.532;2023-03-23T09:40:09;23.60;37.70
56268;DHT22;42175;46.930;9.532;2023-03-23T09:45:25;23.60;38.00
56268;DHT22;42175;46.930;9.532;2023-03-23T09:50:31;23.60;37.80
56268;DHT22;42175;46.930;9.532;2023-03-23T09:53:16;23.60;37.70
56268;DHT22;42175;46.930;9.532;2023-03-23T09:55:43;23.60;37.70
56268;DHT22;42175;46.930;9.532;2023-03-23T09:58:31;23.60;37.50
56268;DHT22;42175;46.930;9.532;2023-03-23T10:01:15;23.60;37.20
56268;DHT22;42175;46.930;9.532;2023-03-23T10:03:45;23.60;37.20
56268;DHT22;42175;46.930;9.532;2023-03-23T10:06:14;23.60;37.20
56268;DHT22;42175;46.930;9.532;2023-03-23T10:08:52;23.60;37.20
56268;DHT22;42175;46.930;9.532;2023-03-23T10:14:28;23.60;37.20
56268;DHT22;42175;46.930;9.532;2023-03-23T10:17:18;23.60;37.10
56268;DHT22;42175;46.930;9.532;2023-03-23T10:19:53;23.60;37.20
56268;DHT22;42175;46.930;9.532;2023-03-23T10:22:32;23.60;37.20
56268;DHT22;42175;46.930;9.532;2023-03-23T10:25:22;23.60;37.10
56268;DHT22;42175;46.930;9.532;2023-03-23T10:27:54;23.60;37.20
56268;DHT22;42175;46.930;9.532;2023-03-23T10:30:38;23.60;37.20
56268;DHT22;42175;46.930;9.532;2023-03-23T10:38:49;23.60;37.10
56268;DHT22;42175;46.930;9.532;2023-03-23T10:41:18;23.60;36.90
56268;DHT22;42175;46.930;9.532;2023-03-23T10:43:45;23.60;36.90
56268;DHT22;42175;46.930;9.532;2023-03-23T10:46:58;23.60;36.70
56268;DHT22;42175;46.930;9.532;2023-03-23T10:49:29;23.60;37.40
56268;DHT22;42175;46.930;9.532;2023-03-23T10:52:36;23.60;36.70
56268;DHT22;42175;46.930;9.532;2023-03-23T10:55:13;23.60;36.70
56268;DHT22;42175;46.930;9.532;2023-03-23T10:57:43;23.60;36.60
56268;DHT22;42175;46.930;9.532;2023-03-23T11:00:23;23.60;36.50
56268;DHT22;42175;46.930;9.532;2023-03-23T11:03:06;23.60;36.50
56268;DHT22;42175;46.930;9.532;2023-03-23T11:05:45;23.60;36.60
56268;DHT22;42175;46.930;9.532;2023-03-23T11:08:23;23.60;36.40
56268;DHT22;42175;46.930;9.532;2023-03-23T11:10:53;23.60;36.50
56268;DHT22;42175;46.930;9.532;2023-03-23T11:13:22;23.60;36.60
56268;DHT22;42175;46.930;9.532;2023-03-23T11:15:49;23.70;36.80
56268;DHT22;42175;46.930;9.532;2023-03-23T11:20:53;23.70;36.70
56268;DHT22;42175;46.930;9.532;2023-03-23T11:28:36;23.60;36.80
56268;DHT22;42175;46.930;9.532;2023-03-23T11:31:04;23.70;36.90
56268;DHT22;42175;46.930;9.532;2023-03-23T11:33:53;23.70;36.90
56268;DHT22;42175;46.930;9.532;2023-03-23T11:36:20;23.70;37.00
56268;DHT22;42175;46.930;9.532;2023-03-23T11:38:54;23.70;37.00
56268;DHT22;42175;46.930;9.532;2023-03-23T11:41:23;23.70;37.10
56268;DHT22;42175;46.930;9.532;2023-03-23T11:43:52;23.70;37.10
56268;DHT22;42175;46.930;9.532;2023-03-23T11:49:01;23.60;37.20
56268;DHT22;42175;46.930;9.532;2023-03-23T11:54:23;23.60;37.20
56268;DHT22;42175;46.930;9.532;2023-03-23T11:56:50;23.70;37.20
56268;DHT22;42175;46.930;9.532;2023-03-23T11:59:31;23.70;37.40
56268;DHT22;42175;46.930;9.532;2023-03-23T12:10:42;23.70;37.20
56268;DHT22;42175;46.930;9.532;2023-03-23T12:19:01;23.70;37.20
56268;DHT22;42175;46.930;9.532;2023-03-23T12:21:38;23.70;37.20
56268;DHT22;42175;46.930;9.532;2023-03-23T12:35:08;23.70;37.30
56268;DHT22;42175;46.930;9.532;2023-03-23T12:40:33;23.80;37.30
56268;DHT22;42175;46.930;9.532;2023-03-23T12:43:28;23.80;37.30
56268;DHT22;42175;46.930;9.532;2023-03-23T12:48:41;23.70;37.20
56268;DHT22;42175;46.930;9.532;2023-03-23T12:54:34;23.70;37.20
56268;DHT22;42175;46.930;9.532;2023-03-23T12:57:34;23.80;37.40
56268;DHT22;42175;46.930;9.532;2023-03-23T13:02:58;23.80;37.30
56268;DHT22;42175;46.930;9.532;2023-03-23T13:05:32;23.70;37.20
56268;DHT22;42175;46.930;9.532;2023-03-23T13:08:01;23.80;37.40
56268;DHT22;42175;46.930;9.532;2023-03-23T13:10:40;23.80;37.40
56268;DHT22;42175;46.930;9.532;2023-03-23T13:13:23;23.80;37.30
56268;DHT22;42175;46.930;9.532;2023-03-23T13:16:04;23.80;37.30
56268;DHT22;42175;46.930;9.532;2023-03-23T13:18:48;23.70;37.20
56268;DHT22;42175;46.930;9.532;2023-03-23T13:22:07;23.80;37.30
56268;DHT22;42175;46.930;9.532;2023-03-23T13:24:35;23.70;37.20
56268;DHT22;42175;46.930;9.532;2023-03-23T13:27:02;23.80;37.10
56268;DHT22;42175;46.930;9.532;2023-03-23T13:29:28;23.80;37.10
56268;DHT22;42175;46.930;9.532;2023-03-23T13:32:12;23.80;37.00
56268;DHT22;42175;46.930;9.532;2023-03-23T13:34:40;23.80;36.90
56268;DHT22;42175;46.930;9.532;2023-03-23T13:37:24;23.80;36.90
56268;DHT22;42175;46.930;9.532;2023-03-23T13:42:29;23.80;36.80
56268;DHT22;42175;46.930;9.532;2023-03-23T13:47:41;23.80;36.80
56268;DHT22;42175;46.930;9.532;2023-03-23T13:50:25;23.80;36.70
56268;DHT22;42175;46.930;9.532;2023-03-23T13:52:53;23.80;36.70
56268;DHT22;42175;46.930;9.532;2023-03-23T14:02:49;23.80;36.60
56268;DHT22;42175;46.930;9.532;2023-03-23T14:08:03;23.80;36.50
56268;DHT22;42175;46.930;9.532;2023-03-23T14:10:50;23.80;36.50
56268;DHT22;42175;46.930;9.532;2023-03-23T14:16:03;23.80;36.60
56268;DHT22;42175;46.930;9.532;2023-03-23T14:18:36;23.90;36.90
56268;DHT22;42175;46.930;9.532;2023-03-23T14:21:03;23.80;37.00
56268;DHT22;42175;46.930;9.532;2023-03-23T14:23:33;23.80;37.10
56268;DHT22;42175;46.930;9.532;2023-03-23T14:26:02;23.90;37.20
56268;DHT22;42175;46.930;9.532;2023-03-23T14:28:39;23.80;37.10
56268;DHT22;42175;46.930;9.532;2023-03-23T14:31:17;23.90;37.20
56268;DHT22;42175;46.930;9.532;2023-03-23T14:33:44;23.90;37.30
56268;DHT22;42175;46.930;9.532;2023-03-23T14:36:10;23.90;37.30
56268;DHT22;42175;46.930;9.532;2023-03-23T14:38:36;23.90;37.40
56268;DHT22;42175;46.930;9.532;2023-03-23T14:41:03;23.90;37.40
56268;DHT22;42175;46.930;9.532;2023-03-23T14:43:33;23.90;37.40
56268;DHT22;42175;46.930;9.532;2023-03-23T14:46:02;23.90;37.40
56268;DHT22;42175;46.930;9.532;2023-03-23T14:48:31;23.80;37.40
56268;DHT22;42175;46.930;9.532;2023-03-23T14:51:00;23.90;37.40
56268;DHT22;42175;46.930;9.532;2023-03-23T14:53:38;23.80;37.20
56268;DHT22;42175;46.930;9.532;2023-03-23T14:56:12;23.80;37.30
56268;DHT22;42175;46.930;9.532;2023-03-23T14:58:38;23.80;37.20
56268;DHT22;42175;46.930;9.532;2023-03-23T15:01:16;23.80;37.30
56268;DHT22;42175;46.930;9.532;2023-03-23T15:03:53;23.80;37.20
56268;DHT22;42175;46.930;9.532;2023-03-23T15:06:23;23.80;37.30
56268;DHT22;42175;46.930;9.532;2023-03-23T15:08:53;23.80;37.20
56268;DHT22;42175;46.930;9.532;2023-03-23T15:11:22;23.90;37.20
56268;DHT22;42175;46.930;9.532;2023-03-23T15:13:56;23.80;37.10
56268;DHT22;42175;46.930;9.532;2023-03-23T15:16:28;23.80;37.20
56268;DHT22;42175;46.930;9.532;2023-03-23T15:18:55;23.80;37.10
56268;DHT22;42175;46.930;9.532;2023-03-23T15:21:27;23.80;37.10
56268;DHT22;42175;46.930;9.532;2023-03-23T15:23:53;23.80;37.10
56268;DHT22;42175;46.930;9.532;2023-03-23T15:26:33;23.80;37.00
56268;DHT22;42175;46.930;9.532;2023-03-23T15:29:03;23.80;36.80
56268;DHT22;42175;46.930;9.532;2023-03-23T15:31:29;23.80;36.90
56268;DHT22;42175;46.930;9.532;2023-03-23T15:33:58;23.80;36.90
56268;DHT22;42175;46.930;9.532;2023-03-23T15:36:25;23.80;36.90
56268;DHT22;42175;46.930;9.532;2023-03-23T15:38:51;23.80;36.90
56268;DHT22;42175;46.930;9.532;2023-03-23T15:41:26;23.80;36.90
56268;DHT22;42175;46.930;9.532;2023-03-23T15:43:55;23.80;37.00
56268;DHT22;42175;46.930;9.532;2023-03-23T15:46:27;23.80;36.90
56268;DHT22;42175;46.930;9.532;2023-03-23T15:49:08;23.80;36.80
56268;DHT22;42175;46.930;9.532;2023-03-23T15:51:35;23.80;36.70
56268;DHT22;42175;46.930;9.532;2023-03-23T15:54:02;23.80;36.70
56268;DHT22;42175;46.930;9.532;2023-03-23T15:56:28;23.80;36.60
56268;DHT22;42175;46.930;9.532;2023-03-23T15:58:55;23.80;36.70
56268;DHT22;42175;46.930;9.532;2023-03-23T16:01:28;23.80;36.60
56268;DHT22;42175;46.930;9.532;2023-03-23T16:06:23;23.70;36.40
56268;DHT22;42175;46.930;9.532;2023-03-23T16:08:49;23.80;36.50
56268;DHT22;42175;46.930;9.532;2023-03-23T16:11:17;23.70;36.40
56268;DHT22;42175;46.930;9.532;2023-03-23T16:13:43;23.70;36.60
56268;DHT22;42175;46.930;9.532;2023-03-23T16:18:40;23.80;36.60
56268;DHT22;42175;46.930;9.532;2023-03-23T16:21:06;23.80;36.70
56268;DHT22;42175;46.930;9.532;2023-03-23T16:23:32;23.80;36.80
56268;DHT22;42175;46.930;9.532;2023-03-23T16:25:58;23.80;36.70
56268;DHT22;42175;46.930;9.532;2023-03-23T16:28:23;23.80;36.80
56268;DHT22;42175;46.930;9.532;2023-03-23T16:30:49;23.80;36.90
56268;DHT22;42175;46.930;9.532;2023-03-23T16:33:14;23.80;36.80
56268;DHT22;42175;46.930;9.532;2023-03-23T16:35:40;23.80;36.90
56268;DHT22;42175;46.930;9.532;2023-03-23T16:38:09;23.80;36.90
56268;DHT22;42175;46.930;9.532;2023-03-23T16:40:36;23.80;36.90
56268;DHT22;42175;46.930;9.532;2023-03-23T16:43:02;23.80;37.00
56268;DHT22;42175;46.930;9.532;2023-03-23T16:45:27;23.80;37.10
56268;DHT22;42175;46.930;9.532;2023-03-23T16:47:54;23.80;37.20
56268;DHT22;42175;46.930;9.532;2023-03-23T16:50:26;23.80;37.30
56268;DHT22;42175;46.930;9.532;2023-03-23T16:52:52;23.80;37.10
56268;DHT22;42175;46.930;9.532;2023-03-23T16:55:17;23.80;37.10
56268;DHT22;42175;46.930;9.532;2023-03-23T16:57:43;23.80;37.00
56268;DHT22;42175;46.930;9.532;2023-03-23T17:00:14;23.80;37.00
56268;DHT22;42175;46.930;9.532;2023-03-23T17:02:42;23.80;37.00
56268;DHT22;42175;46.930;9.532;2023-03-23T17:05:09;23.80;37.00
56268;DHT22;42175;46.930;9.532;2023-03-23T17:07:37;23.80;37.10
56268;DHT22;42175;46.930;9.532;2023-03-23T17:10:03;23.80;37.10
56268;DHT22;42175;46.930;9.532;2023-03-23T17:12:30;23.80;37.10
56268;DHT22;42175;46.930;9.532;2023-03-23T17:14:56;23.80;37.10
56268;DHT22;42175;46.930;9.532;2023-03-23T17:17:22;23.80;37.10
56268;DHT22;42175;46.930;9.532;2023-03-23T17:19:48;23.80;37.10
56268;DHT22;42175;46.930;9.532;2023-03-23T17:22:14;23.80;37.10
56268;DHT22;42175;46.930;9.532;2023-03-23T17:24:40;23.80;37.10
56268;DHT22;42175;46.930;9.532;2023-03-23T17:27:05;23.80;37.10
56268;DHT22;42175;46.930;9.532;2023-03-23T17:29:32;23.80;37.10
56268;DHT22;42175;46.930;9.532;2023-03-23T17:31:58;23.80;37.10
56268;DHT22;42175;46.930;9.532;2023-03-23T17:34:23;23.80;37.10
56268;DHT22;42175;46.930;9.532;2023-03-23T17:36:49;23.80;37.20
56268;DHT22;42175;46.930;9.532;2023-03-23T17:39:15;23.80;37.20
56268;DHT22;42175;46.930;9.532;2023-03-23T17:41:41;23.80;37.20
56268;DHT22;42175;46.930;9.532;2023-03-23T17:44:06;23.80;37.30
56268;DHT22;42175;46.930;9.532;2023-03-23T17:46:33;23.80;37.30
56268;DHT22;42175;46.930;9.532;2023-03-23T17:48:59;23.80;37.40
56268;DHT22;42175;46.930;9.532;2023-03-23T17:51:25;23.80;37.50
56268;DHT22;42175;46.930;9.532;2023-03-23T17:53:50;23.90;37.50
56268;DHT22;42175;46.930;9.532;2023-03-23T17:56:16;23.90;37.50
56268;DHT22;42175;46.930;9.532;2023-03-23T17:58:42;23.80;37.50
56268;DHT22;42175;46.930;9.532;2023-03-23T18:01:08;23.80;37.50
56268;DHT22;42175;46.930;9.532;2023-03-23T18:03:35;23.80;37.50
56268;DHT22;42175;46.930;9.532;2023-03-23T18:06:04;23.80;37.50
56268;DHT22;42175;46.930;9.532;2023-03-23T18:08:33;23.80;37.50
56268;DHT22;42175;46.930;9.532;2023-03-23T18:11:00;23.80;37.50
56268;DHT22;42175;46.930;9.532;2023-03-23T18:13:27;23.80;37.70
56268;DHT22;42175;46.930;9.532;2023-03-23T18:15:54;23.80;37.70
56268;DHT22;42175;46.930;9.532;2023-03-23T18:18:21;23.80;37.80
56268;DHT22;42175;46.930;9.532;2023-03-23T18:20:52;23.90;38.00
56268;DHT22;42175;46.930;9.532;2023-03-23T18:23:18;23.90;38.10
56268;DHT22;42175;46.930;9.532;2023-03-23T18:25:43;23.90;38.10
56268;DHT22;42175;46.930;9.532;2023-03-23T18:28:09;23.80;38.10
56268;DHT22;42175;46.930;9.532;2023-03-23T18:30:35;23.80;38.20
56268;DHT22;42175;46.930;9.532;2023-03-23T18:33:00;23.90;38.20
56268;DHT22;42175;46.930;9.532;2023-03-23T18:35:26;23.90;38.10
56268;DHT22;42175;46.930;9.532;2023-03-23T18:37:52;23.90;38.80
56268;DHT22;42175;46.930;9.532;2023-03-23T18:40:17;23.90;38.40
56268;DHT22;42175;46.930;9.532;2023-03-23T18:42:44;23.90;38.60
56268;DHT22;42175;46.930;9.532;2023-03-23T18:45:11;23.90;39.00
56268;DHT22;42175;46.930;9.532;2023-03-23T18:47:37;23.90;39.00
56268;DHT22;42175;46.930;9.532;2023-03-23T18:50:08;23.90;39.10
56268;DHT22;42175;46.930;9.532;2023-03-23T18:52:34;23.90;39.00
56268;DHT22;42175;46.930;9.532;2023-03-23T18:55:02;23.90;39.10
56268;DHT22;42175;46.930;9.532;2023-03-23T18:57:28;23.90;39.10
56268;DHT22;42175;46.930;9.532;2023-03-23T18:59:53;24.00;39.00
56268;DHT22;42175;46.930;9.532;2023-03-23T19:02:19;23.90;39.00
56268;DHT22;42175;46.930;9.532;2023-03-23T19:04:49;23.90;39.00
56268;DHT22;42175;46.930;9.532;2023-03-23T19:07:16;23.90;39.00
56268;DHT22;42175;46.930;9.532;2023-03-23T19:09:42;24.00;38.90
56268;DHT22;42175;46.930;9.532;2023-03-23T19:12:10;24.00;39.00